createdAt,value
2022-12-18T00:00:24.119Z,20.90
2022-12-18T00:01:34.739Z,23.85
2022-12-18T00:02:37.004Z,24.98
2022-12-18T00:03:39.746Z,25.92
2022-12-18T00:04:42.344Z,23.38
2022-12-18T00:05:51.641Z,22.38
2022-12-18T00:06:54.005Z,23.65
2022-12-18T00:07:56.034Z,26.35
2022-12-18T00:08:59.239Z,27.03
2022-12-18T00:10:01.229Z,27.60
2022-12-18T00:11:12.088Z,26.40
2022-12-18T00:13:18.662Z,23.13
2022-12-18T00:14:20.862Z,24.25
2022-12-18T00:15:22.993Z,22.80
2022-12-18T00:16:27.462Z,22.60
2022-12-18T00:17:29.580Z,22.20
2022-12-18T00:18:32.166Z,21.30
2022-12-18T00:19:34.868Z,20.20
2022-12-18T00:20:38.577Z,19.83
2022-12-18T00:21:41.989Z,20.27
2022-12-18T00:22:44.379Z,18.65
2022-12-18T00:23:47.984Z,20.00
2022-12-18T00:24:49.991Z,20.00
2022-12-18T00:25:52.610Z,16.85
2022-12-18T00:26:55.381Z,18.95
2022-12-18T00:27:57.385Z,19.95
2022-12-18T00:29:01.059Z,19.13
2022-12-18T00:30:05.957Z,20.33
2022-12-18T00:31:20.153Z,20.23
2022-12-18T00:32:22.284Z,20.65
2022-12-18T00:33:25.935Z,20.95
2022-12-18T00:34:27.924Z,19.60
2022-12-18T00:35:30.708Z,18.65
2022-12-18T00:36:35.273Z,19.02
2022-12-18T00:37:37.434Z,18.40
2022-12-18T00:38:41.171Z,18.15
2022-12-18T00:39:43.161Z,17.95
2022-12-18T00:40:45.231Z,17.67
2022-12-18T00:42:06.715Z,18.17
2022-12-18T00:43:08.684Z,16.83
2022-12-18T00:44:13.387Z,16.70
2022-12-18T00:45:15.454Z,17.02
2022-12-18T00:46:17.497Z,16.98
2022-12-18T00:47:19.578Z,15.45
2022-12-18T00:48:21.771Z,17.00
2022-12-18T00:49:24.203Z,17.10
2022-12-18T00:50:27.092Z,16.27
2022-12-18T00:51:29.640Z,16.50
2022-12-18T00:52:31.761Z,15.07
2022-12-18T00:53:33.830Z,15.40
2022-12-18T00:54:36.030Z,15.80
2022-12-18T00:55:41.877Z,16.60
2022-12-18T00:56:49.306Z,17.20
2022-12-18T00:57:53.585Z,19.08
2022-12-18T00:58:55.611Z,19.35
2022-12-18T00:59:58.315Z,20.08
2022-12-18T01:01:00.374Z,18.52
2022-12-18T01:02:02.629Z,15.13
2022-12-18T01:03:05.400Z,13.90
2022-12-18T01:04:07.579Z,12.98
2022-12-18T01:05:11.701Z,14.68
2022-12-18T01:06:15.528Z,15.98
2022-12-18T01:07:17.619Z,16.50
2022-12-18T01:08:19.717Z,15.20
2022-12-18T01:09:21.742Z,14.43
2022-12-18T01:10:24.873Z,15.02
2022-12-18T01:11:27.119Z,14.70
2022-12-18T01:12:29.171Z,13.37
2022-12-18T01:13:31.131Z,12.80
2022-12-18T01:14:33.235Z,11.05
2022-12-18T01:15:35.264Z,12.90
2022-12-18T01:16:37.697Z,11.23
2022-12-18T01:17:43.048Z,11.98
2022-12-18T01:18:45.799Z,11.02
2022-12-18T01:19:47.817Z,10.18
2022-12-18T01:20:49.852Z,10.88
2022-12-18T01:21:51.867Z,10.80
2022-12-18T01:22:53.880Z,10.53
2022-12-18T01:23:57.034Z,10.27
2022-12-18T01:24:59.256Z,10.23
2022-12-18T01:26:06.758Z,10.73
2022-12-18T01:27:11.141Z,10.68
2022-12-18T01:28:13.130Z,10.43
2022-12-18T01:29:16.493Z,11.00
2022-12-18T01:30:18.541Z,12.40
2022-12-18T01:31:32.300Z,12.02
2022-12-18T01:32:34.469Z,14.80
2022-12-18T01:33:38.226Z,13.10
2022-12-18T01:34:42.040Z,14.10
2022-12-18T01:35:44.488Z,13.90
2022-12-18T01:36:46.546Z,14.02
2022-12-18T01:37:48.580Z,14.00
2022-12-18T01:38:52.381Z,13.82
2022-12-18T01:39:55.626Z,12.73
2022-12-18T01:41:01.709Z,13.05
2022-12-18T01:42:14.384Z,13.50
2022-12-18T01:43:17.837Z,13.80
2022-12-18T01:44:57.028Z,13.98
2022-12-18T01:46:01.223Z,15.20
2022-12-18T01:47:03.333Z,16.20
2022-12-18T01:48:09.744Z,16.13
2022-12-18T01:49:13.341Z,16.85
2022-12-18T01:50:20.113Z,16.23
2022-12-18T01:51:22.525Z,16.35
2022-12-18T01:52:29.074Z,15.93
2022-12-18T01:53:31.242Z,15.13
2022-12-18T01:54:33.683Z,15.75
2022-12-18T01:56:05.465Z,16.80
2022-12-18T01:57:08.129Z,15.60
2022-12-18T01:58:11.399Z,16.60
2022-12-18T01:59:14.531Z,16.63
2022-12-18T02:00:19.958Z,16.40
2022-12-18T02:01:24.878Z,17.17
2022-12-18T02:02:30.054Z,17.60
2022-12-18T02:03:32.263Z,16.63
2022-12-18T02:04:34.545Z,16.52
2022-12-18T02:06:03.853Z,15.68
2022-12-18T02:07:21.081Z,14.73
2022-12-18T02:08:37.239Z,14.87
2022-12-18T02:09:55.263Z,15.13
2022-12-18T02:11:09.570Z,15.18
2022-12-18T02:12:50.129Z,14.02
2022-12-18T02:14:09.978Z,13.63
2022-12-18T02:15:26.539Z,16.48
2022-12-18T02:16:28.703Z,15.32
2022-12-18T02:17:45.149Z,15.38
2022-12-18T02:18:52.190Z,14.32
2022-12-18T02:20:21.530Z,15.67
2022-12-18T02:21:29.688Z,15.13
2022-12-18T02:22:44.010Z,14.27
2022-12-18T02:23:57.075Z,14.93
2022-12-18T02:25:07.982Z,15.05
2022-12-18T02:26:36.252Z,15.23
2022-12-18T02:27:42.638Z,14.98
2022-12-18T02:28:56.174Z,15.25
2022-12-18T02:30:00.965Z,18.08
2022-12-18T02:31:08.669Z,16.58
2022-12-18T02:32:19.043Z,16.33
2022-12-18T02:33:22.864Z,16.17
2022-12-18T02:34:32.046Z,16.48
2022-12-18T02:35:35.296Z,16.73
2022-12-18T02:36:41.762Z,16.30
2022-12-18T02:37:45.997Z,17.15
2022-12-18T02:38:48.868Z,14.88
2022-12-18T02:39:55.904Z,15.15
2022-12-18T02:40:58.676Z,15.93
2022-12-18T02:42:03.472Z,16.75
2022-12-18T02:43:14.861Z,16.90
2022-12-18T02:44:17.562Z,16.90
2022-12-18T02:45:20.349Z,17.42
2022-12-18T02:46:25.348Z,18.05
2022-12-18T02:47:32.362Z,18.17
2022-12-18T02:48:36.482Z,19.05
2022-12-18T02:49:45.902Z,17.80
2022-12-18T02:50:59.216Z,16.90
2022-12-18T02:52:24.053Z,17.77
2022-12-18T02:53:29.784Z,16.20
2022-12-18T02:54:48.483Z,16.43
2022-12-18T02:56:22.837Z,14.37
2022-12-18T02:58:04.093Z,14.38
2022-12-18T02:59:30.159Z,15.20
2022-12-18T03:00:42.688Z,15.98
2022-12-18T03:02:24.208Z,15.93
2022-12-18T03:03:33.766Z,16.77
2022-12-18T03:04:48.394Z,16.50
2022-12-18T03:06:01.196Z,16.65
2022-12-18T03:07:09.604Z,17.73
2022-12-18T03:08:21.272Z,18.20
2022-12-18T03:09:34.077Z,18.53
2022-12-18T03:10:43.252Z,17.48
2022-12-18T03:12:08.440Z,18.15
2022-12-18T03:13:15.514Z,17.50
2022-12-18T03:14:21.431Z,17.58
2022-12-18T03:15:31.562Z,17.65
2022-12-18T03:16:43.426Z,16.95
2022-12-18T03:17:53.825Z,17.20
2022-12-18T03:18:58.272Z,17.15
2022-12-18T03:20:06.924Z,15.80
2022-12-18T03:21:14.424Z,15.60
2022-12-18T03:22:18.095Z,15.73
2022-12-18T03:23:29.000Z,16.30
2022-12-18T03:24:32.806Z,15.68
2022-12-18T03:25:40.644Z,16.08
2022-12-18T03:26:47.409Z,15.18
2022-12-18T03:27:55.897Z,14.88
2022-12-18T03:29:04.172Z,14.02
2022-12-18T03:30:11.713Z,15.07
2022-12-18T03:31:15.475Z,15.97
2022-12-18T03:32:28.267Z,16.23
2022-12-18T03:33:42.726Z,15.05
2022-12-18T03:34:47.918Z,16.52
2022-12-18T03:35:51.370Z,15.13
2022-12-18T03:36:57.012Z,16.83
2022-12-18T03:37:59.632Z,15.75
2022-12-18T03:39:02.307Z,15.63
2022-12-18T03:40:08.520Z,15.07
2022-12-18T03:41:28.961Z,15.25
2022-12-18T03:43:36.366Z,15.03
2022-12-18T03:44:46.483Z,13.37
2022-12-18T03:46:26.825Z,13.35
2022-12-18T03:47:31.382Z,12.40
2022-12-18T03:48:45.816Z,12.73
2022-12-18T03:50:18.416Z,12.05
2022-12-18T03:51:30.645Z,11.30
2022-12-18T03:52:55.083Z,11.00
2022-12-18T03:54:05.114Z,10.23
2022-12-18T03:55:13.285Z,9.73
2022-12-18T03:56:18.235Z,9.30
2022-12-18T03:57:24.208Z,9.07
2022-12-18T03:58:30.266Z,7.65
2022-12-18T03:59:52.228Z,6.93
2022-12-18T04:01:00.802Z,7.68
2022-12-18T04:02:04.181Z,9.32
2022-12-18T04:03:08.318Z,9.80
2022-12-18T04:04:18.957Z,8.95
2022-12-18T04:05:22.996Z,10.15
2022-12-18T04:06:25.285Z,9.50
2022-12-18T04:07:28.618Z,10.13
2022-12-18T04:08:34.350Z,9.43
2022-12-18T04:09:42.132Z,8.05
2022-12-18T04:10:44.525Z,8.52
2022-12-18T04:11:48.158Z,10.02
2022-12-18T04:12:52.188Z,9.38
2022-12-18T04:13:59.342Z,10.10
2022-12-18T04:15:01.455Z,11.20
2022-12-18T04:16:04.129Z,10.60
2022-12-18T04:17:06.692Z,11.13
2022-12-18T04:18:09.491Z,11.30
2022-12-18T04:19:15.554Z,9.97
2022-12-18T04:20:19.785Z,10.32
2022-12-18T04:21:24.381Z,10.63
2022-12-18T04:22:27.421Z,10.40
2022-12-18T04:23:34.216Z,11.18
2022-12-18T04:24:41.507Z,9.90
2022-12-18T04:25:54.279Z,10.57
2022-12-18T04:27:09.688Z,11.25
2022-12-18T04:28:18.140Z,11.15
2022-12-18T04:29:20.151Z,10.17
2022-12-18T04:30:22.560Z,10.70
2022-12-18T04:31:24.950Z,10.43
2022-12-18T04:32:27.697Z,10.10
2022-12-18T04:33:29.893Z,9.73
2022-12-18T04:34:32.043Z,10.25
2022-12-18T04:35:34.338Z,10.65
2022-12-18T04:36:36.637Z,9.80
2022-12-18T04:37:39.242Z,8.48
2022-12-18T04:38:41.736Z,8.43
2022-12-18T04:39:48.588Z,9.13
2022-12-18T04:40:58.146Z,8.47
2022-12-18T04:42:02.571Z,8.50
2022-12-18T04:43:06.155Z,8.60
2022-12-18T04:44:08.324Z,7.85
2022-12-18T04:45:10.959Z,7.88
2022-12-18T04:46:13.700Z,8.15
2022-12-18T04:47:16.489Z,8.38
2022-12-18T04:48:18.545Z,7.80
2022-12-18T04:49:20.669Z,7.70
2022-12-18T04:50:22.801Z,7.50
2022-12-18T04:51:26.795Z,8.20
2022-12-18T04:52:29.921Z,8.02
2022-12-18T04:53:34.402Z,8.30
2022-12-18T04:54:36.400Z,7.75
2022-12-18T04:55:38.427Z,9.30
2022-12-18T04:56:41.050Z,8.18
2022-12-18T04:57:43.117Z,9.45
2022-12-18T04:58:45.807Z,9.60
2022-12-18T04:59:48.060Z,10.15
2022-12-18T05:00:50.107Z,9.13
2022-12-18T05:01:52.156Z,8.40
2022-12-18T05:02:54.403Z,8.60
2022-12-18T05:04:00.145Z,10.02
2022-12-18T05:05:03.096Z,8.45
2022-12-18T05:06:06.202Z,9.25
2022-12-18T05:07:08.205Z,9.30
2022-12-18T05:08:10.185Z,9.77
2022-12-18T05:09:12.956Z,9.27
2022-12-18T05:10:15.005Z,9.68
2022-12-18T05:11:17.412Z,10.23
2022-12-18T05:12:19.467Z,10.73
2022-12-18T05:13:21.855Z,10.35
2022-12-18T05:14:24.116Z,10.77
2022-12-18T05:15:29.192Z,10.60
2022-12-18T05:16:31.893Z,10.50
2022-12-18T05:17:34.068Z,10.43
2022-12-18T05:18:36.170Z,10.15
2022-12-18T05:19:38.212Z,10.38
2022-12-18T05:20:42.296Z,10.85
2022-12-18T05:21:44.407Z,10.80
2022-12-18T05:22:48.361Z,10.47
2022-12-18T05:23:50.344Z,10.07
2022-12-18T05:24:52.439Z,8.90
2022-12-18T05:25:56.134Z,9.50
2022-12-18T05:26:58.171Z,8.93
2022-12-18T05:28:00.325Z,8.57
2022-12-18T05:29:02.432Z,8.00
2022-12-18T05:30:04.936Z,7.53
2022-12-18T05:31:07.161Z,7.43
2022-12-18T05:32:09.228Z,7.13
2022-12-18T05:33:11.241Z,7.00
2022-12-18T05:34:13.402Z,7.35
2022-12-18T05:35:15.764Z,6.72
2022-12-18T05:36:17.954Z,7.05
2022-12-18T05:37:19.969Z,6.75
2022-12-18T05:38:24.121Z,7.50
2022-12-18T05:39:26.201Z,7.25
2022-12-18T05:40:28.308Z,7.10
2022-12-18T05:41:30.535Z,7.15
2022-12-18T05:42:32.569Z,6.67
2022-12-18T05:43:37.261Z,9.37
2022-12-18T05:44:39.520Z,8.60
2022-12-18T05:45:42.641Z,9.55
2022-12-18T05:46:44.770Z,10.32
2022-12-18T05:47:46.856Z,10.13
2022-12-18T05:48:51.304Z,7.90
2022-12-18T05:49:53.339Z,8.57
2022-12-18T05:50:55.475Z,7.90
2022-12-18T05:51:57.478Z,7.93
2022-12-18T05:52:59.773Z,7.80
2022-12-18T05:54:01.873Z,7.27
2022-12-18T05:55:04.117Z,7.70
2022-12-18T05:56:08.853Z,6.97
2022-12-18T05:57:11.326Z,6.60
2022-12-18T05:58:14.168Z,6.50
2022-12-18T05:59:16.255Z,7.43
2022-12-18T06:00:18.557Z,6.75
2022-12-18T06:01:26.306Z,6.47
2022-12-18T06:02:28.441Z,7.45
2022-12-18T06:03:33.925Z,6.83
2022-12-18T06:04:36.226Z,8.47
2022-12-18T06:05:40.972Z,8.68
2022-12-18T06:06:42.989Z,8.95
2022-12-18T06:07:45.230Z,9.07
2022-12-18T06:08:47.817Z,8.93
2022-12-18T06:09:49.937Z,9.70
2022-12-18T06:10:53.904Z,8.25
2022-12-18T06:11:55.904Z,8.43
2022-12-18T06:12:57.894Z,7.47
2022-12-18T06:14:00.332Z,8.33
2022-12-18T06:15:03.047Z,7.65
2022-12-18T06:16:06.408Z,7.53
2022-12-18T06:17:08.456Z,7.28
2022-12-18T06:18:10.473Z,7.20
2022-12-18T06:19:16.766Z,7.47
2022-12-18T06:20:18.942Z,7.40
2022-12-18T06:21:21.036Z,6.55
2022-12-18T06:22:23.354Z,6.93
2022-12-18T06:23:25.394Z,6.50
2022-12-18T06:24:27.499Z,7.00
2022-12-18T06:25:30.071Z,7.03
2022-12-18T06:26:32.139Z,6.57
2022-12-18T06:27:38.818Z,6.63
2022-12-18T06:28:42.232Z,6.63
2022-12-18T06:29:44.463Z,6.50
2022-12-18T06:30:49.132Z,6.57
2022-12-18T06:31:51.132Z,6.55
2022-12-18T06:32:56.679Z,6.78
2022-12-18T06:33:59.126Z,7.25
2022-12-18T06:35:01.201Z,7.40
2022-12-18T06:36:11.383Z,7.40
2022-12-18T06:37:13.437Z,7.25
2022-12-18T06:38:15.440Z,7.35
2022-12-18T06:39:17.413Z,7.28
2022-12-18T06:40:19.680Z,7.40
2022-12-18T06:41:22.523Z,7.63
2022-12-18T06:42:25.464Z,7.28
2022-12-18T06:43:29.016Z,7.40
2022-12-18T06:44:30.985Z,7.47
2022-12-18T06:45:33.111Z,7.63
2022-12-18T06:46:35.222Z,7.37
2022-12-18T06:47:37.239Z,8.00
2022-12-18T06:48:40.368Z,7.95
2022-12-18T06:49:42.364Z,8.15
2022-12-18T06:50:44.476Z,8.30
2022-12-18T06:51:46.681Z,8.10
2022-12-18T06:52:49.474Z,8.77
2022-12-18T06:53:52.638Z,8.52
2022-12-18T06:54:54.608Z,8.20
2022-12-18T06:56:10.198Z,8.77
2022-12-18T06:57:13.487Z,9.57
2022-12-18T06:58:15.495Z,9.25
2022-12-18T06:59:17.576Z,8.80
2022-12-18T07:00:19.701Z,9.00
2022-12-18T07:01:22.405Z,9.43
2022-12-18T07:02:24.757Z,9.43
2022-12-18T07:03:26.783Z,8.77
2022-12-18T07:04:32.816Z,11.65
2022-12-18T07:05:34.928Z,11.48
2022-12-18T07:06:36.908Z,9.90
2022-12-18T07:07:39.173Z,12.05
2022-12-18T07:08:41.259Z,10.10
2022-12-18T07:09:43.262Z,9.45
2022-12-18T07:10:47.625Z,10.38
2022-12-18T07:11:51.907Z,10.30
2022-12-18T07:12:53.923Z,8.55
2022-12-18T07:13:55.961Z,9.40
2022-12-18T07:15:00.892Z,8.57
2022-12-18T07:16:24.325Z,8.77
2022-12-18T07:17:27.613Z,8.33
2022-12-18T07:18:30.342Z,8.70
2022-12-18T07:19:32.393Z,8.10
2022-12-18T07:20:34.448Z,8.63
2022-12-18T07:21:36.446Z,8.73
2022-12-18T07:22:38.549Z,7.78
2022-12-18T07:23:41.516Z,7.90
2022-12-18T07:24:43.792Z,7.70
2022-12-18T07:25:45.833Z,7.80
2022-12-18T07:26:48.353Z,7.50
2022-12-18T07:27:50.357Z,6.77
2022-12-18T07:28:56.956Z,6.80
2022-12-18T07:29:58.975Z,6.65
2022-12-18T07:31:10.071Z,5.90
2022-12-18T07:32:14.008Z,6.38
2022-12-18T07:33:16.468Z,5.82
2022-12-18T07:34:18.524Z,6.10
2022-12-18T07:35:24.955Z,6.10
2022-12-18T07:36:31.502Z,5.50
2022-12-18T07:37:33.586Z,6.00
2022-12-18T07:38:36.092Z,5.23
2022-12-18T07:39:38.145Z,5.23
2022-12-18T07:40:40.176Z,5.70
2022-12-18T07:41:47.520Z,5.70
2022-12-18T07:42:51.663Z,5.63
2022-12-18T07:43:53.715Z,6.20
2022-12-18T07:44:55.725Z,6.10
2022-12-18T07:45:58.919Z,5.72
2022-12-18T07:47:01.025Z,5.47
2022-12-18T07:48:03.146Z,6.18
2022-12-18T07:49:05.860Z,6.53
2022-12-18T07:50:08.384Z,6.60
2022-12-18T07:51:13.419Z,6.80
2022-12-18T07:52:15.589Z,8.10
2022-12-18T07:53:17.656Z,9.70
2022-12-18T07:54:20.296Z,9.38
2022-12-18T07:55:22.352Z,9.80
2022-12-18T07:56:29.161Z,9.57
2022-12-18T07:57:50.101Z,8.95
2022-12-18T07:58:52.901Z,7.90
2022-12-18T07:59:54.872Z,8.10
2022-12-18T08:01:05.831Z,7.27
2022-12-18T08:02:11.283Z,7.28
2022-12-18T08:03:14.552Z,7.43
2022-12-18T08:04:16.691Z,8.18
2022-12-18T08:05:18.841Z,8.20
2022-12-18T08:06:22.748Z,8.70
2022-12-18T08:07:29.244Z,8.63
2022-12-18T08:08:31.997Z,8.70
2022-12-18T08:09:33.960Z,8.27
2022-12-18T08:10:36.652Z,8.50
2022-12-18T08:11:38.656Z,8.37
2022-12-18T08:12:41.179Z,8.23
2022-12-18T08:13:43.418Z,7.68
2022-12-18T08:14:45.528Z,7.90
2022-12-18T08:16:01.469Z,7.57
2022-12-18T08:17:03.769Z,6.00
2022-12-18T08:18:09.024Z,5.82
2022-12-18T08:19:13.919Z,7.00
2022-12-18T08:20:16.130Z,6.57
2022-12-18T08:21:22.305Z,5.70
2022-12-18T08:22:24.544Z,5.53
2022-12-18T08:23:28.727Z,5.78
2022-12-18T08:24:31.022Z,6.10
2022-12-18T08:25:33.305Z,6.15
2022-12-18T08:26:35.338Z,5.85
2022-12-18T08:27:37.642Z,5.65
2022-12-18T08:28:40.692Z,6.25
2022-12-18T08:29:42.710Z,5.90
2022-12-18T08:30:44.795Z,6.10
2022-12-18T08:31:47.097Z,6.70
2022-12-18T08:32:53.880Z,6.30
2022-12-18T08:33:56.914Z,6.25
2022-12-18T08:34:58.916Z,7.00
2022-12-18T09:47:58.760Z,1.80
2022-12-18T09:49:07.269Z,2.10
2022-12-18T09:50:38.296Z,1.85
2022-12-18T09:52:10.473Z,1.90
2022-12-18T09:53:27.474Z,1.88
2022-12-18T09:54:43.136Z,1.80
2022-12-18T09:55:47.665Z,1.80
2022-12-18T09:56:49.744Z,1.77
2022-12-18T09:58:27.928Z,1.80
2022-12-18T09:59:40.823Z,1.60
2022-12-18T10:00:42.961Z,1.80
2022-12-18T10:01:47.346Z,1.80
2022-12-18T10:02:52.517Z,1.92
2022-12-18T10:03:56.013Z,1.80
2022-12-18T10:05:12.636Z,1.90
2022-12-18T10:06:20.420Z,1.85
2022-12-18T10:07:36.397Z,3.08
2022-12-18T10:08:50.428Z,1.90
2022-12-18T10:10:14.656Z,2.08
2022-12-18T10:11:54.257Z,1.73
2022-12-18T10:13:04.774Z,2.20
2022-12-18T10:14:46.620Z,1.90
2022-12-18T10:16:10.747Z,1.90
2022-12-18T10:17:21.891Z,2.20
2022-12-18T10:18:50.353Z,2.20
2022-12-18T10:20:11.051Z,2.10
2022-12-18T10:21:20.240Z,2.15
2022-12-18T10:22:37.680Z,2.30
2022-12-18T10:23:48.044Z,2.15
2022-12-18T10:25:02.873Z,2.10
2022-12-18T10:26:10.739Z,2.07
2022-12-18T10:27:19.144Z,2.00
2022-12-18T10:28:23.629Z,2.00
2022-12-18T10:29:26.826Z,2.05
2022-12-18T10:30:28.867Z,2.20
2022-12-18T10:31:30.980Z,1.70
2022-12-18T10:32:32.987Z,2.10
2022-12-18T10:33:35.908Z,2.00
2022-12-18T10:34:38.452Z,2.20
2022-12-18T10:35:43.783Z,2.38
2022-12-18T10:36:47.687Z,2.47
2022-12-18T10:38:18.953Z,2.47
2022-12-18T10:39:27.206Z,2.20
2022-12-18T10:40:29.601Z,2.10
2022-12-18T10:41:33.359Z,2.00
2022-12-18T10:42:35.424Z,1.95
2022-12-18T10:43:39.763Z,2.10
2022-12-18T10:44:41.740Z,2.00
2022-12-18T10:45:58.535Z,2.17
2022-12-18T10:47:11.871Z,1.90
2022-12-18T10:48:23.277Z,2.00
2022-12-18T10:49:29.005Z,2.10
2022-12-18T10:51:09.054Z,2.25
2022-12-18T10:52:29.610Z,1.88
2022-12-18T10:53:36.127Z,2.10
2022-12-18T10:54:39.607Z,2.00
2022-12-18T10:55:47.012Z,2.20
2022-12-18T10:56:49.552Z,1.92
2022-12-18T10:57:52.367Z,2.35
2022-12-18T10:59:00.214Z,2.00
2022-12-18T11:00:29.493Z,1.90
2022-12-18T11:01:58.885Z,1.98
2022-12-18T11:03:03.455Z,2.20
2022-12-18T11:04:10.297Z,2.20
2022-12-18T11:05:34.282Z,2.20
2022-12-18T11:06:55.121Z,2.40
2022-12-18T11:08:00.252Z,2.38
2022-12-18T11:09:12.353Z,2.15
2022-12-18T11:10:19.052Z,2.10
2022-12-18T11:11:23.717Z,2.05
2022-12-18T11:12:25.839Z,2.00
2022-12-18T11:13:30.954Z,2.05
2022-12-18T11:14:47.600Z,1.98
2022-12-18T11:15:50.623Z,2.00
2022-12-18T11:18:21.336Z,1.70
2022-12-18T11:19:26.699Z,1.77
2022-12-18T11:20:35.847Z,1.63
2022-12-18T11:21:42.752Z,1.88
2022-12-18T11:22:54.863Z,1.90
2022-12-18T11:23:56.950Z,1.70
2022-12-18T11:26:36.874Z,1.70
2022-12-18T11:27:41.807Z,1.80
2022-12-18T11:29:08.835Z,1.90
2022-12-18T11:30:36.114Z,1.60
2022-12-18T11:31:39.013Z,1.77
2022-12-18T11:32:44.384Z,1.73
2022-12-18T11:35:40.926Z,1.90
2022-12-18T11:36:47.143Z,1.90
2022-12-18T11:37:58.611Z,1.90
2022-12-18T11:39:10.115Z,1.80
2022-12-18T11:40:19.559Z,1.70
2022-12-18T11:42:13.219Z,1.70
2022-12-18T11:43:41.326Z,1.55
2022-12-18T11:44:54.117Z,1.88
2022-12-18T11:45:59.833Z,1.65
2022-12-18T11:47:10.379Z,1.70
2022-12-18T11:48:40.175Z,1.60
2022-12-18T11:49:47.488Z,1.57
2022-12-18T11:50:55.792Z,1.70
2022-12-18T11:52:12.336Z,2.10
2022-12-18T11:53:15.980Z,1.90
2022-12-18T11:54:20.697Z,2.63
2022-12-18T11:55:43.235Z,2.83
2022-12-18T11:57:03.487Z,2.30
2022-12-18T11:58:34.676Z,2.20
2022-12-18T11:59:41.750Z,1.90
2022-12-18T12:00:57.631Z,1.90
2022-12-18T12:02:23.202Z,2.70
2022-12-18T12:04:01.726Z,2.67
2022-12-18T12:05:42.586Z,1.77
2022-12-18T12:07:05.947Z,2.28
2022-12-18T12:08:13.415Z,2.10
2022-12-18T12:09:52.410Z,1.63
2022-12-18T12:11:32.935Z,1.92
2022-12-18T12:13:04.671Z,1.70
2022-12-18T12:14:54.407Z,1.70
2022-12-18T12:16:13.473Z,1.77
2022-12-18T12:17:30.718Z,2.13
2022-12-18T12:18:36.481Z,2.17
2022-12-18T12:20:16.443Z,2.40
2022-12-18T12:21:47.202Z,1.95
2022-12-18T12:22:49.648Z,2.03
2022-12-18T12:24:17.703Z,2.40
2022-12-18T12:25:31.461Z,1.83
2022-12-18T12:27:06.091Z,1.88
2022-12-18T12:28:19.241Z,2.22
2022-12-18T12:29:27.520Z,2.50
2022-12-18T12:31:02.360Z,3.30
2022-12-18T12:32:07.182Z,3.42
2022-12-18T12:33:18.010Z,3.88
2022-12-18T12:34:23.110Z,3.47
2022-12-18T12:35:36.259Z,2.50
2022-12-18T12:37:04.324Z,3.10
2022-12-18T12:38:12.342Z,2.50
2022-12-18T12:39:22.908Z,2.80
2022-12-18T12:42:09.448Z,1.80
2022-12-18T12:43:50.489Z,2.00
2022-12-18T12:44:57.195Z,2.00
2022-12-18T12:46:11.265Z,2.30
2022-12-18T12:47:20.277Z,1.90
2022-12-18T12:48:35.279Z,1.80
2022-12-18T12:51:19.055Z,1.75
2022-12-18T12:52:40.561Z,1.70
2022-12-18T12:53:43.485Z,2.10
2022-12-18T12:54:47.699Z,1.70
2022-12-18T12:55:51.205Z,2.37
2022-12-18T12:57:07.979Z,2.05
2022-12-18T12:58:29.222Z,1.70
2022-12-18T12:59:35.805Z,2.13
2022-12-18T13:00:55.121Z,1.80
2022-12-18T13:02:21.724Z,1.70
2022-12-18T13:03:49.739Z,1.80
2022-12-18T13:04:52.697Z,2.35
2022-12-18T13:06:02.296Z,1.88
2022-12-18T13:07:13.554Z,1.80
2022-12-18T13:08:35.090Z,1.63
2022-12-18T13:10:17.247Z,1.85
2022-12-18T13:12:04.536Z,1.70
2022-12-18T13:13:17.200Z,1.58
2022-12-18T13:13:43.554Z,1.70
2022-12-18T13:14:29.563Z,1.60
2022-12-18T13:15:46.113Z,1.40
2022-12-18T13:16:49.030Z,1.40
2022-12-18T13:18:09.976Z,1.40
2022-12-18T13:19:26.440Z,1.75
2022-12-18T13:20:35.570Z,1.50
2022-12-18T13:21:37.745Z,1.40
2022-12-18T13:22:42.248Z,1.35
2022-12-18T13:23:44.738Z,1.35
2022-12-18T13:24:47.172Z,1.50
2022-12-18T13:25:53.734Z,1.40
2022-12-18T13:26:55.958Z,1.48
2022-12-18T13:28:12.557Z,2.05
2022-12-18T13:29:45.142Z,1.52
2022-12-18T13:30:50.229Z,1.55
2022-12-18T13:31:53.697Z,1.50
2022-12-18T13:33:14.701Z,1.40
2022-12-18T13:34:26.756Z,1.50
2022-12-18T13:35:30.454Z,1.30
2022-12-18T13:36:35.306Z,1.50
2022-12-18T13:37:44.716Z,1.50
2022-12-18T13:38:47.139Z,1.30
2022-12-18T13:39:50.026Z,1.20
2022-12-18T13:40:52.073Z,1.23
2022-12-18T13:42:33.907Z,1.50
2022-12-18T13:43:46.259Z,1.40
2022-12-18T13:44:48.957Z,1.50
2022-12-18T13:46:03.540Z,1.60
2022-12-18T13:47:14.605Z,1.50
2022-12-18T13:48:25.228Z,1.40
2022-12-18T13:49:41.785Z,1.45
2022-12-18T13:50:44.163Z,1.45
2022-12-18T13:51:51.818Z,1.52
2022-12-18T13:52:55.348Z,1.50
2022-12-18T13:54:20.378Z,1.60
2022-12-18T13:55:24.303Z,1.40
2022-12-18T13:56:29.891Z,1.40
2022-12-18T13:57:41.829Z,1.50
2022-12-18T13:58:44.551Z,1.50
2022-12-18T13:59:47.573Z,1.60
2022-12-18T14:00:49.727Z,1.40
2022-12-18T14:02:04.198Z,1.50
2022-12-18T14:03:35.424Z,1.73
2022-12-18T14:04:37.904Z,1.60
2022-12-18T14:05:40.438Z,1.60
2022-12-18T14:06:47.129Z,1.63
2022-12-18T14:07:51.204Z,1.70
2022-12-18T14:08:55.048Z,1.50
2022-12-18T14:10:18.667Z,1.73
2022-12-18T14:11:26.686Z,1.67
2022-12-18T14:12:50.336Z,1.70
2022-12-18T14:13:53.164Z,1.55
2022-12-18T14:14:56.823Z,1.50
2022-12-18T14:16:01.762Z,1.63
2022-12-18T14:17:11.460Z,1.60
2022-12-18T14:18:23.070Z,1.70
2022-12-18T14:19:26.535Z,1.73
2022-12-18T14:20:30.626Z,1.80
2022-12-18T14:21:36.180Z,1.65
2022-12-18T14:22:38.251Z,1.70
2022-12-18T14:23:43.386Z,1.67
2022-12-18T14:24:46.366Z,1.60
2022-12-18T14:25:48.402Z,1.80
2022-12-18T14:26:51.852Z,1.85
2022-12-18T14:28:08.904Z,2.38
2022-12-18T14:29:27.598Z,2.42
2022-12-18T14:30:36.825Z,2.80
2022-12-18T14:31:38.866Z,2.88
2022-12-18T14:32:40.875Z,2.00
2022-12-18T14:33:43.109Z,2.40
2022-12-18T14:34:49.645Z,2.00
2022-12-18T14:35:57.747Z,2.17
2022-12-18T14:37:00.189Z,2.17
2022-12-18T14:38:31.355Z,2.30
2022-12-18T14:39:33.459Z,1.90
2022-12-18T14:40:35.592Z,1.90
2022-12-18T14:41:37.614Z,2.20
2022-12-18T14:42:39.725Z,2.10
2022-12-18T14:43:47.185Z,1.90
2022-12-18T14:45:05.563Z,1.77
2022-12-18T14:46:33.700Z,2.10
2022-12-18T14:47:35.866Z,1.90
2022-12-18T14:48:43.625Z,1.90
2022-12-18T14:49:46.040Z,2.05
2022-12-18T14:50:57.374Z,1.80
2022-12-18T14:52:03.544Z,1.80
2022-12-18T14:53:06.508Z,2.00
2022-12-18T14:54:17.977Z,1.70
2022-12-18T14:55:21.989Z,1.70
2022-12-18T14:56:25.954Z,1.85
2022-12-18T14:57:38.806Z,1.90
2022-12-18T14:58:45.146Z,1.77
2022-12-18T14:59:47.238Z,1.88
2022-12-18T15:00:49.438Z,1.70
2022-12-18T15:01:59.561Z,1.90
2022-12-18T15:03:02.676Z,1.98
2022-12-18T15:04:22.832Z,2.00
2022-12-18T15:05:30.613Z,1.83
2022-12-18T15:06:36.079Z,1.80
2022-12-18T15:07:49.026Z,2.05
2022-12-18T15:08:51.198Z,2.22
2022-12-18T15:10:05.589Z,2.03
2022-12-18T15:11:29.503Z,1.90
2022-12-18T15:12:41.512Z,1.90
2022-12-18T15:13:43.687Z,1.98
2022-12-18T15:14:45.841Z,2.10
2022-12-18T15:15:49.570Z,2.00
2022-12-18T15:16:55.983Z,1.92
2022-12-18T15:18:02.619Z,2.25
2022-12-18T15:19:04.659Z,3.05
2022-12-18T15:20:11.917Z,2.50
2022-12-18T15:21:19.241Z,2.00
2022-12-18T15:22:28.358Z,2.10
2022-12-18T15:23:49.718Z,2.30
2022-12-18T15:24:52.697Z,1.98
2022-12-18T15:26:09.572Z,2.50
2022-12-18T15:27:31.775Z,2.10
2022-12-18T15:29:00.017Z,1.98
2022-12-18T15:30:08.942Z,2.00
2022-12-18T15:31:12.446Z,2.00
2022-12-18T15:32:21.431Z,2.20
2022-12-18T15:33:31.692Z,2.30
2022-12-18T15:34:37.076Z,2.10
2022-12-18T15:35:42.454Z,2.20
2022-12-18T15:36:48.929Z,2.13
2022-12-18T15:37:52.876Z,1.88
2022-12-18T15:39:05.381Z,1.73
2022-12-18T15:40:23.817Z,1.98
2022-12-18T15:41:25.996Z,2.00
2022-12-18T15:42:46.359Z,2.03
2022-12-18T15:43:50.430Z,2.10
2022-12-18T15:44:52.508Z,2.03
2022-12-18T15:45:54.578Z,1.92
2022-12-18T15:46:57.156Z,1.83
2022-12-18T15:47:59.242Z,2.10
2022-12-18T15:49:03.092Z,1.95
2022-12-18T15:50:06.180Z,2.13
2022-12-18T15:51:36.547Z,2.00
2022-12-18T15:52:45.703Z,1.92
2022-12-18T15:53:49.654Z,1.88
2022-12-18T15:55:10.196Z,1.95
2022-12-18T15:56:31.995Z,2.80
2022-12-18T15:57:34.203Z,2.00
2022-12-18T15:58:36.265Z,2.30
2022-12-18T15:59:38.263Z,2.00
2022-12-18T16:00:41.254Z,2.13
2022-12-18T16:01:46.390Z,2.33
2022-12-18T16:02:48.853Z,2.03
2022-12-18T16:03:51.209Z,3.33
2022-12-18T16:04:54.917Z,2.20
2022-12-18T16:05:59.175Z,2.17
2022-12-18T16:07:24.906Z,1.92
2022-12-18T16:08:24.407Z,1.85
2022-12-18T16:09:26.581Z,1.90
2022-12-18T16:10:29.366Z,2.00
2022-12-18T16:11:39.901Z,1.98
2022-12-18T16:12:42.941Z,1.90
2022-12-18T16:13:44.965Z,1.90
2022-12-18T16:14:48.508Z,2.03
2022-12-18T16:15:51.471Z,2.22